Terminal Aerodrome Forecast
Issued by NWS

Current Version | Previous Version | Text Only | Print | Product List | Glossary Off
Versions: 1 2 3 4 5 6 7 8 9 10 11 12 13 14 15 16 17 18 19 20 21 22 23 24 25 26 27

000
FTUS41 KRLX 281400 AAA
TAFCKB
TAF AMD
KCKB 281436Z 2815/2912 28011G18KT P6SM VCSH SCT015 BKN018
      TEMPO 2815/2818 SCT025
     FM281800 27010G16KT 5SM -SHRA VCTS BKN040CB
     FM282200 30005KT P6SM BKN080
     FM290300 31004KT 5SM BR SCT080
     FM290800 00000KT 4SM BR SCT080
     FM291100 00000KT 2SM BR FEW080=

USA.gov is the U.S. government's official web portal to all federal, state and local government web resources and services.